Central Sonoma County Latest

37 Stations

15 Minute Data | America/Los_Angeles
as of 9/4/26 5:51 AM PDT
Station Date Time Temp (°F) RH (%) Dew Pt (°F) Wind Spd (mph) Wind Dir (°) Wind Gust (mph) Latest Rain (In) Daily Rain (In) Daily Max Temp (°F) Daily Min Temp (°F)
Windsor-NW (Ranch 8) 9/4/26 0545 54.6   5.0 89   4 51.4   3.5 0.0   0.0 SSW | 206 0.0   0.0 0.00 0.00 56.3   3.4 53.9   4.9
Windsor-East (Ranch 16) 9/4/26 0545 52.9   7.0 100   6 52.9   5.1 0.0   1.0 N | 0 0.0   3.3 0.00 0.00 54.9   6.2 49.4   9.7
Mark West-North (Ranch 14) 9/4/26 0545 54.6   5.7 98   3 53.9   4.7 0.1   1.6 NNE | 20 1.7   3.5 0.00 0.00 54.7   6.7 50.8   9.0
Windsor-SE (Silk Rd) 9/4/26 0545 53.1   6.7 100   3 53.0   5.9 0.5   0.5 SW | 230 1.5   1.5 0.00 0.00 53.9   6.2 49.9   8.6
Fulton-NW (Ranch 5) 9/4/26 0545 53.4   7.0 3   42 -25.7   40.1 0.2   4.8 SW | 217 1.3   6.3 0.00 0.00 54.3   7.1 49.9   9.7
Bisordi (Fulton) 9/4/26 0545 54.1   6.5 97   3 53.2   5.7 0.7   1.6 WSW | 255 2.2   2.9 0.00 0.00 54.2   7.4 49.1   10.0
Windsor-South (Laughlin Rd) 9/4/26 0545 52.5   8.0 93   0 50.5   7.8 - - - 0.00 0.00 56.6   3.9 51.8   6.8
Fulton-SE (Barnes Rd) 9/4/26 0545 55.1   6.1 96   1 54.0   5.6 0.0   2.9 N | 0 0.0   6.1 0.00 0.00 56.0   5.9 52.3   7.9
Fulton-SW (Ranch 21) 9/4/26 0545 53.2   7.2 0   12 -59.8   17.7 0.3   2.4 SSW | 193 1.4   4.6 0.00 0.00 54.1   6.5 49.9   7.5
NW Santa Rosa (Piner Road) 9/4/26 0530 51.7   8.9 100   0 51.7   9.0 0.0   1.5 N | 0 0.0   4.8 0.00 0.00 53.7   6.9 49.6   6.6
River Rd South (Denner Ranch) 9/4/26 0545 50.0   9.4 0   0 -67.6   8.5 0.3   4.4 S | 179 1.1   7.0 - - 54.8   5.0 49.5   6.5
West Santa Rosa (LOV Vineyard) 8/26/26 0900 53.3   5.2 97   6 52.4   3.5 1.0   0.1 SW | 224 3.6   0.0 0.00 0.00 53.6   5.2 50.2   1.8
Guerneville Rd (Prokopakis) 9/4/26 0545 50.8   9.9 98   1 50.3   9.6 - - - 0.00 0.00 54.5   6.4 50.2   6.6
SunnyView Vineyard (SCWC) 9/4/26 0545 51.7   8.5 100   6 51.7   6.9 0.1   0.5 SE | 141 1.1   1.5 0.00 0.01 52.4   8.1 48.7   6.8
Guerneville Rd West (Balletto) 9/4/26 0545 51.9   9.1 98   1 51.4   8.7 0.1   1.9 SSE | 151 1.2   2.8 0.01 0.01 54.1   7.2 50.1   8.1
Sanchietti Ranch 9/4/26 0545 51.4   10.1 96   2 50.3   9.4 0.0   2.9 N | 0 0.0   5.1 0.00 0.00 53.9   8.0 49.4   9.1
Occidental Rd (Sebastopol) 9/4/26 0545 50.4   10.2 100   0 50.4   10.2 0.0   1.7 N | 0 0.0   3.7 0.00 0.00 55.4   5.5 48.7   8.8
Harper's Rest (Windsor-West) 9/4/26 0545 52.3   6.3 96   3 51.4   5.4 0.4   0.4 WSW | 245 1.4   0.5 0.00 0.00 52.7   6.0 49.2   6.6
Lower Westside Rd (Ranch 12) 9/4/26 0545 50.8   8.0 100   2 50.8   7.4 0.1   0.1 SSW | 212 1.0   1.0 0.00 0.00 54.0   4.9 49.8   5.8
Guerneville (Laughlin Rd) 9/4/26 0545 52.8   5.5 98   3 52.2   4.7 0.9   0.9 N | 350 2.0   2.0 0.00 0.00 55.2   3.1 52.6   3.8
Korbel (Winery) 9/4/26 0545 53.7   5.3 98   2 53.2   4.7 1.8   0.9 NE | 43 3.2   0.1 0.00 0.00 56.2   2.9 53.7   3.6
Forestville (Shone Farms) 9/4/26 0545 50.5   9.3 97   1 49.6   9.1 0.0   1.2 N | 0 0.0   4.2 0.00 0.00 57.7   3.8 48.1   9.6
Forestville-NE (Ranch 30) 9/4/26 0545 49.9   8.7 100   2 49.7   8.2 0.3   0.3 NE | 43 1.8   0.9 0.00 0.00 55.2   3.5 48.9   7.7
Foggy Bend (Ranch 41) 9/4/26 0545 51.6   8.0 96   1 50.6   7.6 1.3   1.3 ENE | 64 3.1   3.1 0.00 0.00 56.8   2.8 51.4   6.3
Last Stop 9/4/26 0545 48.3   11.6 95   2 47.0   11.1 0.0   0.0 N | 0 0.0   0.0 0.00 0.00 57.3   2.6 48.3   9.4
Green Valley Vineyard 9/4/26 0545 49.6   9.7 96   0 48.7   9.6 0.0   0.2 N | 0 0.0   1.5 0.00 0.00 55.6   4.0 49.1   7.8
Park Royal 9/4/26 0545 51.8   8.6 98   2 51.1   7.9 - - - 0.00 0.00 53.2   8.2 49.3   8.9
Merino 9/4/26 0545 51.2   9.7 100   3 51.2   8.9 0.0   2.1 N | 0 0.0   5.0 0.01 0.01 52.4   8.5 48.6   8.2
Green Valley (Sanchietti) 9/4/26 0545 47.4   12.3 - - - - - - - 54.8   5.1 46.2   9.8
Keefer Ranch (Green Valley) 9/4/26 0545 47.8   12.2 96   2 46.8   11.6 - - - 0.00 0.00 54.6   5.4 47.2   10.1
Graton-West (Dutton Ranch) 9/4/26 0545 48.6   11.6 100   0 48.6   11.6 0.0   0.3 N | 0 0.0   1.6 0.00 0.00 56.0   4.3 48.1   9.5
Graton-South (Mill Station Rd) 9/4/26 0545 47.2   13.5 97   1 46.5   13.1 0.0   0.0 N | 0 0.0   0.0 0.00 0.00 55.2   5.8 47.1   11.0
Occidental (Horseshoe Bend) 9/4/26 0545 51.6   8.5 100   0 51.6   8.5 - - - 0.00 0.00 54.0   6.1 51.5   7.4
Sexton Valley (Jacqueline's Blk) 9/4/26 0545 48.7   13.4 97   0 47.8   13.3 0.0   0.5 N | 0 0.0   2.5 0.00 0.01 54.7   7.5 48.5   10.7
Sebastopol Hills (Burnside Rd) 9/4/26 0545 53.0   7.7 99   0 52.8   7.8 0.0   3.8 N | 0 0.0   8.5 0.00 0.00 55.6   5.2 52.2   7.3
Pleasant Hill 9/4/26 0545 49.0   11.4 95   1 47.6   11.2 0.4   0.3 E | 82 1.6   0.9 0.00 0.00 55.5   5.2 48.8   11.3
Seaview/Fort Ross (Hirsch) 9/4/26 0545 49.4   8.4 97   0 48.6   8.4 1.8   1.0 N | 353 3.6   6.7 0.00 0.00 52.6   5.2 49.4   7.2
Max     55.1 100 54.0 1.8 - 3.6 0.01 0.01 57.7 53.9
Avg     51.3 89 41.9 0.3 - 1.0 0.00 - - -
Min     47.2 0 -67.6 0.0 - 0.0 0.00 0.00 52.4 46.2